createdAt,value
2024-01-04T00:03:27.447Z,94502.75
2024-01-04T00:08:29.278Z,94511.09
2024-01-04T00:13:31.039Z,94519.50
2024-01-04T00:18:33.286Z,94541.00
2024-01-04T00:23:36.728Z,94519.34
2024-01-04T00:28:38.478Z,94520.34
2024-01-04T00:33:40.188Z,94522.56
2024-01-04T00:38:42.285Z,94551.81
2024-01-04T00:43:43.930Z,94530.19
2024-01-04T00:48:45.992Z,94541.16
2024-01-04T00:53:47.840Z,94557.06
2024-01-04T00:58:49.515Z,94543.94
2024-01-04T01:03:52.308Z,94558.16
2024-01-04T01:08:53.888Z,94576.31
2024-01-04T01:13:55.478Z,94562.88
2024-01-04T01:18:57.184Z,94577.47
2024-01-04T01:23:58.969Z,94561.56
2024-01-04T01:29:00.693Z,94586.69
2024-01-04T01:34:02.394Z,94597.50
2024-01-04T01:39:04.373Z,94576.31
2024-01-04T01:44:05.930Z,94592.78
2024-01-04T01:49:07.845Z,94579.97
2024-01-04T01:54:09.589Z,94584.19
2024-01-04T01:59:15.100Z,94581.31
2024-01-04T02:04:22.817Z,94586.31
2024-01-04T02:09:24.463Z,94600.34
2024-01-04T02:14:26.030Z,94601.53
2024-01-04T02:19:27.866Z,94617.34
2024-01-04T02:24:29.928Z,94615.03
2024-01-04T02:29:31.572Z,94614.50
2024-01-04T02:34:33.482Z,94630.53
2024-01-04T02:39:35.216Z,94621.94
2024-01-04T02:44:36.862Z,94642.50
2024-01-04T02:49:39.414Z,94642.34
2024-01-04T02:54:41.047Z,94654.69
2024-01-04T02:59:42.603Z,94645.63
2024-01-04T03:04:45.778Z,94669.44
2024-01-04T03:09:49.832Z,94658.88
2024-01-04T03:14:51.513Z,94661.94
2024-01-04T03:19:53.357Z,94657.53
2024-01-04T03:24:55.103Z,94650.91
2024-01-04T03:29:57.169Z,94640.72
2024-01-04T03:34:58.841Z,94633.47
2024-01-04T03:40:00.488Z,94637.69
2024-01-04T03:45:02.179Z,94638.91
2024-01-04T03:50:06.454Z,94633.09
2024-01-04T03:55:08.422Z,94646.75
2024-01-04T04:00:10.710Z,94666.22
2024-01-04T04:05:15.155Z,94675.03
2024-01-04T04:10:17.214Z,94682.69
2024-01-04T04:15:18.961Z,94705.53
2024-01-04T04:20:20.640Z,94711.41
2024-01-04T04:25:22.259Z,94701.69
2024-01-04T04:30:24.489Z,94721.91
2024-01-04T04:35:26.170Z,94714.59
2024-01-04T04:40:27.808Z,94718.28
2024-01-04T04:45:29.440Z,94733.50
2024-01-04T04:50:31.057Z,94737.88
2024-01-04T04:55:34.350Z,94741.59
2024-01-04T05:00:36.162Z,94763.31
2024-01-04T05:05:37.874Z,94762.34
2024-01-04T05:10:39.541Z,94763.16
2024-01-04T05:15:41.163Z,94763.59
2024-01-04T05:20:42.931Z,94775.59
2024-01-04T05:25:45.462Z,94767.66
2024-01-04T05:30:47.265Z,94772.31
2024-01-04T05:35:48.990Z,94792.72
2024-01-04T05:40:50.554Z,94785.91
2024-01-04T05:45:52.118Z,94801.13
2024-01-04T05:50:54.153Z,94810.69
2024-01-04T05:55:55.782Z,94821.88
2024-01-04T06:00:57.385Z,94839.03
2024-01-04T06:05:59.250Z,94842.94
2024-01-04T06:11:00.884Z,94849.09
2024-01-04T06:16:08.733Z,94869.38
2024-01-04T06:21:10.296Z,94879.09
2024-01-04T06:26:20.366Z,94895.78
2024-01-04T06:31:22.056Z,94905.34
2024-01-04T06:36:24.372Z,94904.38
2024-01-04T06:41:30.803Z,94907.78
2024-01-04T06:46:32.363Z,94912.97
2024-01-04T06:51:34.098Z,94916.38
2024-01-04T06:56:35.764Z,94931.09
2024-01-04T07:01:37.566Z,94937.25
2024-01-04T07:06:39.170Z,94958.81
2024-01-04T07:11:40.828Z,94964.31
2024-01-04T07:16:50.365Z,94967.72
2024-01-04T07:21:51.968Z,94981.03
2024-01-04T07:26:53.920Z,94989.44
2024-01-04T07:31:56.206Z,94984.25
2024-01-04T07:36:57.757Z,94981.03
2024-01-04T07:41:59.471Z,94994.78
2024-01-04T07:47:01.817Z,94994.13
2024-01-04T07:52:03.633Z,94994.13
2024-01-04T07:57:05.860Z,94993.16
2024-01-04T08:02:07.447Z,94987.16
2024-01-04T08:07:09.185Z,94989.59
2024-01-04T08:12:13.524Z,94992.34
2024-01-04T08:17:15.200Z,95002.53
2024-01-04T08:22:16.854Z,95000.94
2024-01-04T08:27:21.683Z,95003.34
2024-01-04T08:32:23.352Z,94993.31
2024-01-04T08:37:25.153Z,94990.88
2024-01-04T08:42:27.011Z,94992.09
2024-01-04T08:47:28.811Z,94972.75
2024-01-04T08:52:30.651Z,94974.50
2024-01-04T08:57:33.568Z,94975.31
2024-01-04T09:02:35.220Z,94985.19
2024-01-04T09:07:36.780Z,95002.50
2024-01-04T09:12:41.315Z,95018.75
2024-01-04T09:17:46.762Z,95030.56
2024-01-04T09:22:49.105Z,95040.16
2024-01-04T09:27:50.723Z,95054.22
2024-01-04T09:32:52.709Z,95063.72
2024-01-04T09:37:54.390Z,95063.03
2024-01-04T09:42:58.373Z,95065.91
2024-01-04T09:48:01.886Z,95076.28
2024-01-04T09:53:03.635Z,95067.19
2024-01-04T09:58:10.196Z,95067.47
2024-01-04T10:03:13.339Z,95075.63
2024-01-04T10:08:27.569Z,95083.13
2024-01-04T10:13:30.260Z,95104.25
2024-01-04T10:18:32.017Z,95105.69
2024-01-04T10:23:33.689Z,95108.41
2024-01-04T10:28:36.835Z,95103.38
2024-01-04T10:33:41.234Z,95116.47
2024-01-04T10:38:43.784Z,95123.22
2024-01-04T10:43:45.740Z,95133.56
2024-01-04T10:48:47.870Z,95133.41
2024-01-04T10:53:49.546Z,95122.59
2024-01-04T10:58:51.190Z,95144.00
2024-01-04T11:03:58.533Z,95132.72
2024-01-04T11:09:00.188Z,95138.81
2024-01-04T11:14:02.783Z,95122.84
2024-01-04T11:19:10.245Z,95117.53
2024-01-04T11:24:23.881Z,95111.53
2024-01-04T11:29:26.494Z,95119.31
2024-01-04T11:34:28.336Z,95107.56
2024-01-04T11:39:30.267Z,95120.59
2024-01-04T11:44:37.947Z,95114.41
2024-01-04T11:49:51.469Z,95113.97
2024-01-04T11:54:55.671Z,95119.91
2024-01-04T11:59:57.260Z,95113.44
2024-01-04T12:04:59.093Z,95113.72
2024-01-04T12:10:00.770Z,95108.31
2024-01-04T12:15:04.683Z,95087.13
2024-01-04T12:20:11.149Z,95114.41
2024-01-04T12:25:12.838Z,95099.41
2024-01-04T12:30:14.517Z,95121.78
2024-01-04T12:35:17.137Z,95124.56
2024-01-04T12:40:18.731Z,95116.78
2024-01-04T12:45:21.398Z,95118.47
2024-01-04T12:50:23.046Z,95112.81
2024-01-04T12:55:25.256Z,95115.34
2024-01-04T13:00:26.879Z,95121.09
2024-01-04T13:05:28.448Z,95124.34
2024-01-04T13:10:31.610Z,95131.47
2024-01-04T13:15:33.202Z,95120.25
2024-01-04T13:20:35.831Z,95130.91
2024-01-04T13:25:37.536Z,95135.72
2024-01-04T13:30:39.248Z,95143.25
2024-01-04T13:35:40.951Z,95135.03
2024-01-04T13:40:42.967Z,95132.56
2024-01-04T13:45:44.616Z,95148.31
2024-01-04T13:50:46.897Z,95148.75
2024-01-04T13:55:48.709Z,95150.44
2024-01-04T14:00:50.545Z,95152.78
2024-01-04T14:05:54.580Z,95161.94
2024-01-04T14:10:57.117Z,95175.13
2024-01-04T14:15:58.708Z,95167.84
2024-01-04T14:21:00.288Z,95175.94
2024-01-04T14:26:03.010Z,95167.72
2024-01-04T14:31:06.274Z,95171.44
2024-01-04T14:36:10.723Z,95168.56
2024-01-04T14:41:12.303Z,95181.88
2024-01-04T14:46:29.644Z,95183.50
2024-01-04T14:51:31.506Z,95199.06
2024-01-04T14:56:38.374Z,95208.94
2024-01-04T15:01:41.152Z,95196.78
2024-01-04T15:06:42.737Z,95210.56
2024-01-04T15:16:46.181Z,95197.91
2024-01-04T15:21:48.683Z,95194.19
2024-01-04T15:26:50.255Z,95196.63
2024-01-04T15:31:51.981Z,95181.88
2024-01-04T15:36:53.798Z,95203.59
2024-01-04T15:41:55.986Z,95201.63
2024-01-04T15:46:58.044Z,95203.91
2024-01-04T15:51:59.694Z,95210.66
2024-01-04T15:57:01.341Z,95216.03
2024-01-04T16:02:02.996Z,95216.56
2024-01-04T16:07:06.050Z,95206.69
2024-01-04T16:12:07.844Z,95217.38
2024-01-04T16:17:09.401Z,95231.78
2024-01-04T16:22:10.922Z,95242.00
2024-01-04T16:27:12.511Z,95243.16
2024-01-04T16:32:14.127Z,95252.53
2024-01-04T16:37:15.700Z,95252.06
2024-01-04T16:42:18.044Z,95259.19
2024-01-04T16:47:20.098Z,95263.38
2024-01-04T16:52:21.762Z,95265.16
2024-01-04T16:57:23.411Z,95262.25
2024-01-04T17:02:25.048Z,95262.50
2024-01-04T17:07:26.968Z,95266.88
2024-01-04T17:12:28.740Z,95253.13
2024-01-04T17:17:30.373Z,95255.22
2024-01-04T17:22:33.450Z,95251.50
2024-01-04T17:27:35.050Z,95249.56
2024-01-04T17:32:36.750Z,95260.41
2024-01-04T17:37:39.252Z,95254.59
2024-01-04T17:42:41.049Z,95259.59
2024-01-04T17:47:45.957Z,95266.19
2024-01-04T17:52:47.701Z,95269.41
2024-01-04T17:57:49.259Z,95276.22
2024-01-04T18:02:50.915Z,95275.91
2024-01-04T18:07:52.680Z,95278.00
2024-01-04T18:12:54.389Z,95277.03
2024-01-04T18:17:56.130Z,95272.69
2024-01-04T18:22:57.877Z,95272.38
2024-01-04T18:27:59.469Z,95264.75
2024-01-04T18:33:01.200Z,95272.69
2024-01-04T18:38:04.110Z,95275.97
2024-01-04T18:43:05.786Z,95280.06
2024-01-04T18:48:07.755Z,95287.84
2024-01-04T18:53:09.497Z,95291.09
2024-01-04T18:58:11.018Z,95283.97
2024-01-04T19:03:12.654Z,95291.44
2024-01-04T19:08:14.229Z,95285.28
2024-01-04T19:13:15.841Z,95276.50
2024-01-04T19:18:19.006Z,95278.44
2024-01-04T19:23:20.793Z,95256.53
2024-01-04T19:28:22.469Z,95249.53
2024-01-04T19:33:24.215Z,95244.66
2024-01-04T19:38:25.888Z,95251.06
2024-01-04T19:43:28.446Z,95249.41
2024-01-04T19:48:30.231Z,95254.06
2024-01-04T19:53:31.986Z,95261.13
2024-01-04T19:58:36.472Z,95253.50
2024-01-04T20:03:38.132Z,95258.03
2024-01-04T20:08:39.822Z,95255.25
2024-01-04T20:13:41.392Z,95261.53
2024-01-04T20:18:43.467Z,95249.72
2024-01-04T20:23:45.099Z,95235.75
2024-01-04T20:28:46.701Z,95222.38
2024-01-04T20:33:48.430Z,95222.38
2024-01-04T20:38:51.032Z,95213.03
2024-01-04T20:43:52.631Z,95213.88
2024-01-04T20:48:54.321Z,95203.19
2024-01-04T20:53:56.024Z,95199.47
2024-01-04T20:58:57.851Z,95205.97
2024-01-04T21:03:59.596Z,95203.22
2024-01-04T21:09:01.304Z,95199.09
2024-01-04T21:14:03.759Z,95203.38
2024-01-04T21:19:05.617Z,95196.03
2024-01-04T21:24:07.568Z,95195.09
2024-01-04T21:29:09.170Z,95193.34
2024-01-04T21:34:11.523Z,95188.47
2024-01-04T21:39:13.183Z,95194.78
2024-01-04T21:44:15.153Z,95191.25
2024-01-04T21:49:20.534Z,95199.81
2024-01-04T21:54:22.327Z,95195.91
2024-01-04T21:59:24.273Z,95193.16
2024-01-04T22:04:25.825Z,95192.50
2024-01-04T22:09:27.446Z,95188.91
2024-01-04T22:14:29.006Z,95186.38
2024-01-04T22:19:30.601Z,95177.75
2024-01-04T22:24:32.336Z,95172.16
2024-01-04T22:29:35.929Z,95166.91
2024-01-04T22:34:38.963Z,95178.06
2024-01-04T22:39:41.553Z,95169.09
2024-01-04T22:44:43.889Z,95164.78
2024-01-04T22:49:45.448Z,95170.47
2024-01-04T22:54:47.084Z,95157.53
2024-01-04T22:59:48.698Z,95140.78
2024-01-04T23:04:50.249Z,95137.81
2024-01-04T23:09:51.805Z,95130.78
2024-01-04T23:14:53.377Z,95123.63
2024-01-04T23:19:55.304Z,95120.16
2024-01-04T23:24:56.966Z,95112.66
2024-01-04T23:29:58.607Z,95108.56
2024-01-04T23:35:00.507Z,95087.13
2024-01-04T23:40:02.503Z,95087.41
2024-01-04T23:45:04.387Z,95079.66
2024-01-04T23:50:06.659Z,95070.44
2024-01-04T23:55:08.818Z,95068.72
